createdAt,value
2019-05-09T00:00:56.921Z,980.77
2019-05-09T00:01:56.897Z,980.80
2019-05-09T00:02:56.899Z,980.83
2019-05-09T00:03:56.896Z,980.76
2019-05-09T00:04:56.855Z,980.91
2019-05-09T00:05:58.123Z,980.92
2019-05-09T00:06:56.835Z,980.93
2019-05-09T00:07:56.824Z,980.90
2019-05-09T00:08:56.843Z,980.97
2019-05-09T00:09:56.802Z,980.90
2019-05-09T00:10:56.794Z,980.90
2019-05-09T00:11:56.783Z,980.83
2019-05-09T00:12:56.773Z,980.82
2019-05-09T00:13:56.788Z,980.77
2019-05-09T00:14:58.082Z,980.79
2019-05-09T00:15:56.741Z,980.82
2019-05-09T00:16:56.729Z,980.93
2019-05-09T00:17:56.716Z,981.00
2019-05-09T00:18:56.730Z,980.94
2019-05-09T00:19:56.697Z,980.90
2019-05-09T00:20:56.721Z,980.87
2019-05-09T00:21:56.677Z,980.83
2019-05-09T00:22:56.667Z,980.83
2019-05-09T00:23:57.580Z,980.76
2019-05-09T00:24:56.645Z,980.83
2019-05-09T00:25:56.634Z,980.76
2019-05-09T00:26:56.616Z,980.76
2019-05-09T00:27:56.612Z,980.76
2019-05-09T00:28:56.625Z,980.78
2019-05-09T00:29:56.585Z,980.84
2019-05-09T00:30:56.583Z,980.85
2019-05-09T00:31:56.563Z,980.83
2019-05-09T00:32:57.282Z,980.77
2019-05-09T00:33:56.575Z,980.76
2019-05-09T00:34:56.538Z,980.76
2019-05-09T00:35:56.559Z,980.75
2019-05-09T00:36:56.511Z,980.70
2019-05-09T00:37:57.170Z,980.73
2019-05-09T00:38:56.490Z,980.71
2019-05-09T00:39:57.320Z,980.74
2019-05-09T00:40:59.011Z,980.78
2019-05-09T00:41:56.467Z,980.79
2019-05-09T00:42:56.448Z,980.85
2019-05-09T00:43:56.437Z,980.87
2019-05-09T00:44:56.458Z,980.82
2019-05-09T00:45:56.425Z,980.91
2019-05-09T00:46:56.406Z,980.85
2019-05-09T00:47:56.397Z,980.80
2019-05-09T00:48:56.393Z,980.81
2019-05-09T00:49:57.164Z,980.75
2019-05-09T00:50:56.365Z,980.72
2019-05-09T00:51:56.353Z,980.66
2019-05-09T00:52:56.349Z,980.75
2019-05-09T00:53:56.340Z,980.71
2019-05-09T00:54:56.352Z,980.71
2019-05-09T00:55:56.311Z,980.75
2019-05-09T00:56:56.301Z,980.76
2019-05-09T00:57:56.291Z,980.76
2019-05-09T00:58:56.280Z,980.80
2019-05-09T00:59:57.159Z,980.76
2019-05-09T01:00:56.261Z,980.76
2019-05-09T01:01:56.255Z,980.78
2019-05-09T01:02:56.245Z,980.79
2019-05-09T01:03:56.241Z,980.83
2019-05-09T01:04:56.246Z,980.83
2019-05-09T01:05:56.206Z,980.87
2019-05-09T01:06:56.204Z,980.91
2019-05-09T01:07:56.196Z,980.95
2019-05-09T01:08:56.176Z,980.92
2019-05-09T01:09:56.232Z,980.97
2019-05-09T01:11:08.557Z,980.94
2019-05-09T01:11:57.144Z,980.92
2019-05-09T01:12:56.143Z,980.97
2019-05-09T01:13:56.130Z,980.99
2019-05-09T01:14:56.141Z,980.95
2019-05-09T01:15:56.102Z,980.87
2019-05-09T01:16:56.100Z,980.95
2019-05-09T01:17:56.082Z,980.93
2019-05-09T01:18:56.740Z,980.89
2019-05-09T01:19:56.087Z,980.88
2019-05-09T01:20:56.048Z,980.88
2019-05-09T01:21:56.094Z,980.76
2019-05-09T01:22:56.028Z,980.88
2019-05-09T01:23:56.031Z,980.92
2019-05-09T01:24:56.043Z,980.97
2019-05-09T01:25:57.647Z,980.97
2019-05-09T01:26:55.987Z,981.00
2019-05-09T01:27:55.975Z,980.94
2019-05-09T01:28:55.970Z,980.99
2019-05-09T01:29:55.985Z,980.97
2019-05-09T01:30:55.946Z,980.98
2019-05-09T01:31:55.934Z,981.02
2019-05-09T01:32:55.923Z,981.05
2019-05-09T01:33:55.914Z,981.10
2019-05-09T01:34:55.934Z,981.13
2019-05-09T01:35:55.893Z,981.07
2019-05-09T01:36:56.861Z,981.08
2019-05-09T01:37:55.872Z,981.04
2019-05-09T01:38:55.869Z,981.10
2019-05-09T01:39:55.884Z,981.10
2019-05-09T01:40:55.841Z,981.05
2019-05-09T01:41:55.839Z,981.06
2019-05-09T01:42:55.820Z,981.11
2019-05-09T01:43:55.815Z,981.14
2019-05-09T01:44:55.828Z,981.08
2019-05-09T01:45:55.797Z,981.13
2019-05-09T01:46:55.800Z,981.18
2019-05-09T01:47:55.767Z,981.13
2019-05-09T01:48:56.322Z,981.13
2019-05-09T01:49:55.781Z,981.06
2019-05-09T01:50:55.735Z,981.09
2019-05-09T01:51:55.734Z,981.09
2019-05-09T01:52:55.722Z,981.03
2019-05-09T01:53:55.704Z,981.14
2019-05-09T01:54:55.730Z,981.10
2019-05-09T01:55:56.327Z,981.06
2019-05-09T01:56:55.672Z,981.10
2019-05-09T01:57:55.663Z,981.08
2019-05-09T01:58:55.661Z,981.04
2019-05-09T01:59:55.669Z,981.08
2019-05-09T02:00:55.631Z,981.01
2019-05-09T02:01:55.620Z,981.06
2019-05-09T02:02:55.615Z,981.07
2019-05-09T02:03:55.607Z,981.08
2019-05-09T02:04:55.619Z,981.08
2019-05-09T02:05:55.578Z,981.09
2019-05-09T02:06:55.574Z,981.04
2019-05-09T02:07:55.563Z,981.07
2019-05-09T02:08:55.556Z,981.09
2019-05-09T02:09:55.565Z,981.03
2019-05-09T02:10:55.535Z,981.03
2019-05-09T02:11:55.561Z,981.03
2019-05-09T02:12:55.505Z,981.04
2019-05-09T02:13:55.503Z,981.06
2019-05-09T02:14:55.514Z,981.01
2019-05-09T02:15:55.557Z,981.02
2019-05-09T02:16:55.463Z,980.97
2019-05-09T02:18:01.422Z,980.95
2019-05-09T02:18:56.450Z,980.94
2019-05-09T02:19:55.480Z,981.05
2019-05-09T02:20:55.430Z,981.08
2019-05-09T02:21:55.453Z,981.10
2019-05-09T02:22:55.409Z,981.12
2019-05-09T02:23:55.390Z,981.10
2019-05-09T02:24:55.385Z,981.09
2019-05-09T02:25:55.405Z,981.09
2019-05-09T02:26:55.363Z,981.05
2019-05-09T02:27:55.396Z,981.09
2019-05-09T02:28:55.346Z,981.04
2019-05-09T02:29:55.336Z,981.08
2019-05-09T02:30:55.347Z,981.08
2019-05-09T02:31:55.326Z,981.08
2019-05-09T02:32:55.321Z,981.07
2019-05-09T02:33:55.300Z,981.09
2019-05-09T02:34:55.290Z,981.21
2019-05-09T02:35:58.271Z,981.17
2019-05-09T02:36:58.715Z,981.20
2019-05-09T02:37:58.502Z,981.14
2019-05-09T02:38:55.242Z,981.19
2019-05-09T02:39:58.943Z,981.21
2019-05-09T02:40:55.249Z,981.16
2019-05-09T02:42:04.798Z,981.12
2019-05-09T02:42:58.893Z,981.16
2019-05-09T02:43:58.357Z,981.13
2019-05-09T02:44:55.182Z,981.14
2019-05-09T02:45:59.090Z,981.09
2019-05-09T02:46:55.157Z,981.11
2019-05-09T02:47:55.151Z,981.11
2019-05-09T02:48:55.135Z,981.15
2019-05-09T02:49:55.125Z,981.15
2019-05-09T02:50:55.137Z,981.18
2019-05-09T02:51:55.105Z,981.13
2019-05-09T02:52:55.095Z,981.31
2019-05-09T02:53:58.543Z,981.30
2019-05-09T02:54:58.074Z,981.26
2019-05-09T02:55:55.085Z,981.26
2019-05-09T02:56:57.848Z,981.28
2019-05-09T02:57:55.045Z,981.24
2019-05-09T02:58:55.031Z,981.22
2019-05-09T02:59:55.020Z,981.25
2019-05-09T03:00:55.040Z,981.20
2019-05-09T03:01:58.274Z,981.29
2019-05-09T03:02:54.992Z,981.32
2019-05-09T03:03:54.981Z,981.30
2019-05-09T03:04:57.904Z,981.35
2019-05-09T03:05:54.989Z,981.40
2019-05-09T03:06:54.948Z,981.42
2019-05-09T03:07:54.938Z,981.31
2019-05-09T03:08:55.439Z,981.38
2019-05-09T03:09:54.927Z,981.36
2019-05-09T03:10:54.933Z,981.27
2019-05-09T03:11:54.896Z,981.30
2019-05-09T03:12:54.920Z,981.29
2019-05-09T03:13:54.876Z,981.31
2019-05-09T03:14:54.945Z,981.30
2019-05-09T03:15:58.422Z,981.34
2019-05-09T03:16:54.843Z,981.38
2019-05-09T03:17:54.864Z,981.18
2019-05-09T03:18:54.823Z,981.17
2019-05-09T03:19:54.814Z,981.11
2019-05-09T03:20:54.830Z,981.02
2019-05-09T03:21:54.790Z,981.13
2019-05-09T03:22:54.781Z,981.15
2019-05-09T03:23:54.773Z,981.01
2019-05-09T03:24:54.766Z,981.13
2019-05-09T03:25:54.776Z,980.98
2019-05-09T03:26:54.742Z,981.05
2019-05-09T03:27:58.511Z,981.05
2019-05-09T03:28:54.717Z,981.16
2019-05-09T03:29:54.713Z,981.11
2019-05-09T03:30:54.744Z,981.09
2019-05-09T03:31:54.685Z,981.10
2019-05-09T03:32:54.682Z,981.13
2019-05-09T03:33:54.666Z,981.07
2019-05-09T03:34:54.666Z,981.03
2019-05-09T03:35:54.653Z,981.17
2019-05-09T03:36:54.663Z,981.11
2019-05-09T03:37:54.624Z,981.09
2019-05-09T03:38:54.621Z,981.11
2019-05-09T03:39:54.682Z,981.16
2019-05-09T03:40:54.627Z,981.18
2019-05-09T03:41:54.613Z,981.22
2019-05-09T03:42:57.380Z,981.23
2019-05-09T03:43:54.562Z,981.26
2019-05-09T03:44:57.894Z,981.24
2019-05-09T03:45:54.540Z,981.23
2019-05-09T03:46:54.557Z,981.28
2019-05-09T03:47:54.517Z,981.29
2019-05-09T03:48:54.515Z,981.32
2019-05-09T03:49:54.498Z,981.32
2019-05-09T03:50:54.508Z,981.36
2019-05-09T03:51:54.513Z,981.32
2019-05-09T03:52:54.465Z,981.35
2019-05-09T03:53:54.456Z,981.32
2019-05-09T03:54:54.454Z,981.37
2019-05-09T03:55:54.434Z,981.32
2019-05-09T03:56:54.453Z,981.38
2019-05-09T03:57:54.413Z,981.32
2019-05-09T03:58:54.409Z,981.32
2019-05-09T03:59:54.392Z,981.28
2019-05-09T04:00:54.382Z,981.27
2019-05-09T04:01:54.410Z,981.28
2019-05-09T04:02:54.369Z,981.32
2019-05-09T04:03:54.362Z,981.26
2019-05-09T04:04:54.341Z,981.30
2019-05-09T04:05:59.904Z,981.32
2019-05-09T04:06:55.348Z,981.34
2019-05-09T04:07:54.319Z,981.35
2019-05-09T04:08:55.167Z,981.37
2019-05-09T04:09:54.299Z,981.36
2019-05-09T04:10:54.312Z,981.38
2019-05-09T04:11:54.296Z,981.37
2019-05-09T04:12:58.964Z,981.48
2019-05-09T04:13:55.253Z,981.36
2019-05-09T04:14:54.269Z,981.41
2019-05-09T04:15:54.254Z,981.33
2019-05-09T04:16:57.373Z,981.42
2019-05-09T04:17:55.042Z,981.45
2019-05-09T04:18:55.162Z,981.45
2019-05-09T04:19:54.183Z,981.55
2019-05-09T04:20:54.182Z,981.50
2019-05-09T04:21:54.200Z,981.54
2019-05-09T04:22:54.159Z,981.56
2019-05-09T04:23:54.149Z,981.58
2019-05-09T04:24:54.687Z,981.57
2019-05-09T04:25:54.129Z,981.57
2019-05-09T04:26:54.940Z,981.63
2019-05-09T04:27:54.107Z,981.64
2019-05-09T04:28:54.097Z,981.64
2019-05-09T04:29:54.085Z,981.73
2019-05-09T04:30:54.067Z,981.65
2019-05-09T04:31:54.588Z,981.70
2019-05-09T04:32:54.071Z,981.66
2019-05-09T04:33:54.703Z,981.66
2019-05-09T04:34:54.034Z,981.62
2019-05-09T04:35:54.022Z,981.62
2019-05-09T04:36:54.041Z,981.58
2019-05-09T04:37:54.633Z,981.56
2019-05-09T04:38:53.994Z,981.59
2019-05-09T04:39:59.545Z,981.58
2019-05-09T04:40:54.975Z,981.55
2019-05-09T04:41:54.990Z,981.58
2019-05-09T04:43:08.920Z,981.63
2019-05-09T04:43:57.368Z,981.61
2019-05-09T04:44:57.463Z,981.69
2019-05-09T04:45:54.921Z,981.60
2019-05-09T04:46:58.964Z,981.57
2019-05-09T04:47:54.898Z,981.65
2019-05-09T04:48:58.378Z,981.80
2019-05-09T04:49:54.947Z,981.71
2019-05-09T04:50:56.599Z,981.69
2019-05-09T04:51:53.886Z,981.71
2019-05-09T04:52:53.845Z,981.69
2019-05-09T04:53:53.835Z,981.68
2019-05-09T04:54:53.827Z,981.72
2019-05-09T04:55:53.816Z,981.70
2019-05-09T04:56:54.040Z,981.75
2019-05-09T04:57:53.793Z,981.76
2019-05-09T04:58:53.782Z,981.82
2019-05-09T04:59:53.774Z,981.72
2019-05-09T05:00:53.761Z,981.81
2019-05-09T05:01:53.760Z,981.77
2019-05-09T05:02:53.762Z,981.77
2019-05-09T05:03:53.732Z,981.82
2019-05-09T05:04:53.733Z,981.79
2019-05-09T05:05:53.710Z,981.86
2019-05-09T05:06:54.700Z,981.75
2019-05-09T05:07:54.569Z,981.76
2019-05-09T05:08:53.679Z,981.84
2019-05-09T05:09:53.667Z,981.73
2019-05-09T05:10:53.689Z,981.75
2019-05-09T05:11:53.647Z,981.72
2019-05-09T05:12:53.666Z,981.76
2019-05-09T05:13:53.635Z,981.84
2019-05-09T05:14:53.620Z,981.82
2019-05-09T05:15:53.605Z,981.85
2019-05-09T05:16:55.367Z,981.88
2019-05-09T05:17:54.205Z,981.85
2019-05-09T05:18:53.574Z,981.81
2019-05-09T05:19:53.562Z,981.92
2019-05-09T05:20:53.554Z,981.87
2019-05-09T05:21:53.544Z,981.81
2019-05-09T05:22:53.562Z,981.76
2019-05-09T05:23:53.528Z,981.76
2019-05-09T05:24:55.771Z,981.71
2019-05-09T05:25:54.500Z,981.73
2019-05-09T05:26:53.498Z,981.74
2019-05-09T05:27:53.510Z,981.80
2019-05-09T05:28:53.475Z,981.77
2019-05-09T05:29:53.459Z,981.84
2019-05-09T05:30:53.448Z,981.84
2019-05-09T05:31:53.444Z,981.85
2019-05-09T05:32:54.217Z,981.82
2019-05-09T05:33:54.002Z,981.85
2019-05-09T05:34:53.406Z,981.81
2019-05-09T05:35:53.397Z,981.88
2019-05-09T05:36:53.384Z,981.87
2019-05-09T05:37:53.426Z,981.85
2019-05-09T05:38:53.370Z,981.88
2019-05-09T05:39:53.355Z,981.88
2019-05-09T05:40:54.233Z,981.86
2019-05-09T05:41:53.339Z,981.89
2019-05-09T05:42:53.361Z,981.87
2019-05-09T05:43:53.314Z,981.93
2019-05-09T05:44:53.308Z,981.95
2019-05-09T05:45:53.290Z,981.95
2019-05-09T05:46:53.321Z,981.95
2019-05-09T05:47:53.300Z,981.86
2019-05-09T05:48:53.266Z,981.92
2019-05-09T05:49:53.258Z,981.94
2019-05-09T05:50:53.247Z,981.95
2019-05-09T05:51:54.657Z,981.96
2019-05-09T05:52:53.281Z,981.93
2019-05-09T05:53:53.216Z,981.94
2019-05-09T05:54:53.228Z,981.92
2019-05-09T05:55:53.196Z,982.00
2019-05-09T05:56:53.190Z,981.95
2019-05-09T05:57:53.193Z,981.94
2019-05-09T05:58:53.914Z,982.01
2019-05-09T05:59:53.187Z,981.98
2019-05-09T06:00:53.142Z,981.93
2019-05-09T06:01:53.135Z,982.00
2019-05-09T06:02:53.163Z,981.99
2019-05-09T06:03:53.109Z,981.97
2019-05-09T06:04:53.122Z,981.96
2019-05-09T06:05:53.090Z,981.91
2019-05-09T06:06:53.079Z,981.94
2019-05-09T06:07:53.070Z,981.93
2019-05-09T06:08:53.989Z,981.91
2019-05-09T06:09:53.073Z,981.96
2019-05-09T06:10:53.040Z,981.92
2019-05-09T06:11:53.024Z,981.97
2019-05-09T06:12:53.016Z,981.97
2019-05-09T06:13:57.549Z,981.96
2019-05-09T06:14:53.998Z,982.04
2019-05-09T06:15:52.987Z,982.06
2019-05-09T06:16:52.977Z,982.03
2019-05-09T06:17:52.963Z,982.06
2019-05-09T06:18:52.973Z,982.07
2019-05-09T06:19:53.912Z,982.06
2019-05-09T06:20:52.935Z,982.07
2019-05-09T06:21:52.919Z,982.10
2019-05-09T06:22:52.912Z,982.15
2019-05-09T06:23:52.930Z,982.21
2019-05-09T06:24:52.892Z,982.20
2019-05-09T06:25:53.410Z,982.15
2019-05-09T06:26:53.822Z,982.26
2019-05-09T06:27:52.859Z,982.27
2019-05-09T06:28:52.872Z,982.36
2019-05-09T06:29:52.836Z,982.32
2019-05-09T06:30:52.825Z,982.21
2019-05-09T06:31:52.821Z,982.19
2019-05-09T06:32:52.806Z,982.28
2019-05-09T06:33:53.613Z,982.16
2019-05-09T06:34:52.782Z,982.16
2019-05-09T06:35:52.778Z,982.17
2019-05-09T06:36:52.765Z,982.25
2019-05-09T06:37:53.390Z,982.15
2019-05-09T06:38:53.359Z,982.08
2019-05-09T06:39:52.723Z,982.06
2019-05-09T06:40:52.722Z,982.14
2019-05-09T06:41:53.378Z,982.04
2019-05-09T06:42:52.700Z,982.09
2019-05-09T06:43:52.741Z,982.05
2019-05-09T06:44:52.671Z,982.05
2019-05-09T06:45:53.349Z,982.11
2019-05-09T06:46:52.671Z,982.11
2019-05-09T06:47:53.289Z,982.05
2019-05-09T06:48:52.639Z,982.07
2019-05-09T06:49:52.648Z,982.03
2019-05-09T06:50:52.609Z,982.10
2019-05-09T06:51:52.597Z,982.00
2019-05-09T06:52:52.596Z,982.01
2019-05-09T06:53:52.586Z,982.00
2019-05-09T06:54:52.599Z,982.06
2019-05-09T06:55:52.563Z,982.07
2019-05-09T06:56:52.583Z,982.01
2019-05-09T06:57:52.538Z,982.00
2019-05-09T06:58:52.527Z,982.05
2019-05-09T06:59:53.243Z,981.97
2019-05-09T07:00:52.510Z,982.06
2019-05-09T07:01:52.493Z,982.06
2019-05-09T07:02:53.242Z,982.07
2019-05-09T07:03:52.472Z,982.07
2019-05-09T07:04:52.490Z,982.11
2019-05-09T07:05:52.459Z,982.15
2019-05-09T07:06:52.440Z,982.01
2019-05-09T07:07:52.439Z,982.00
2019-05-09T07:08:52.419Z,982.10
2019-05-09T07:09:52.436Z,981.94
2019-05-09T07:10:52.405Z,982.05
2019-05-09T07:11:52.395Z,981.99
2019-05-09T07:12:53.302Z,982.09
2019-05-09T07:13:52.367Z,982.04
2019-05-09T07:14:52.577Z,981.99
2019-05-09T07:15:52.368Z,982.09
2019-05-09T07:16:52.346Z,981.96
2019-05-09T07:17:52.325Z,982.01
2019-05-09T07:18:52.321Z,982.01
2019-05-09T07:19:52.333Z,982.03
2019-05-09T07:20:52.293Z,982.09
2019-05-09T07:21:52.305Z,982.05
2019-05-09T07:22:52.273Z,982.01
2019-05-09T07:23:52.262Z,981.95
2019-05-09T07:24:52.311Z,982.01
2019-05-09T07:25:52.250Z,981.91
2019-05-09T07:26:53.051Z,982.01
2019-05-09T07:27:52.220Z,981.92
2019-05-09T07:28:52.210Z,981.93
2019-05-09T07:29:52.199Z,981.96
2019-05-09T07:30:52.218Z,981.83
2019-05-09T07:31:52.179Z,981.89
2019-05-09T07:32:52.172Z,981.90
2019-05-09T07:33:52.184Z,981.88
2019-05-09T07:34:52.148Z,981.86
2019-05-09T07:35:52.607Z,981.88
2019-05-09T07:36:52.126Z,981.96
2019-05-09T07:37:52.116Z,981.81
2019-05-09T07:38:52.106Z,981.84
2019-05-09T07:39:52.095Z,981.82
2019-05-09T07:40:52.825Z,981.86
2019-05-09T07:41:52.081Z,981.82
2019-05-09T07:42:52.098Z,981.79
2019-05-09T07:43:52.055Z,981.85
2019-05-09T07:44:52.823Z,981.89
2019-05-09T07:45:53.207Z,981.88
2019-05-09T07:46:52.021Z,981.89
2019-05-09T07:47:52.012Z,981.93
2019-05-09T07:48:52.042Z,982.05
2019-05-09T07:49:52.000Z,981.97
2019-05-09T07:50:52.001Z,981.95
2019-05-09T07:51:51.969Z,982.00
2019-05-09T07:52:51.960Z,981.96
2019-05-09T07:53:52.631Z,981.92
2019-05-09T07:54:51.958Z,981.99
2019-05-09T07:55:51.958Z,981.93
2019-05-09T07:56:51.998Z,981.82
2019-05-09T07:57:55.379Z,981.95
2019-05-09T07:58:51.905Z,981.85
2019-05-09T07:59:51.920Z,981.87
2019-05-09T08:00:51.897Z,981.81
2019-05-09T08:01:51.867Z,981.90
2019-05-09T08:02:51.886Z,981.78
2019-05-09T08:03:51.854Z,981.82
2019-05-09T08:04:52.565Z,981.83
2019-05-09T08:05:51.844Z,981.84
2019-05-09T08:06:51.813Z,981.85
2019-05-09T08:07:51.822Z,981.84
2019-05-09T08:08:52.562Z,981.84
2019-05-09T08:09:52.706Z,981.81
2019-05-09T08:10:51.814Z,981.78
2019-05-09T08:11:51.759Z,981.81
2019-05-09T08:12:51.753Z,981.84
2019-05-09T08:13:52.680Z,981.81
2019-05-09T08:15:07.336Z,981.76
2019-05-09T08:15:52.748Z,981.80
2019-05-09T08:16:51.714Z,981.78
2019-05-09T08:17:51.690Z,981.76
2019-05-09T08:18:51.687Z,981.73
2019-05-09T08:19:52.557Z,981.72
2019-05-09T08:20:51.687Z,981.84
2019-05-09T08:21:51.647Z,981.80
2019-05-09T08:22:57.816Z,981.79
2019-05-09T08:23:52.634Z,981.77
2019-05-09T08:24:51.625Z,981.78
2019-05-09T08:25:51.637Z,981.79
2019-05-09T08:26:52.715Z,981.84
2019-05-09T08:27:52.214Z,981.79
2019-05-09T08:28:51.583Z,981.74
2019-05-09T08:29:51.574Z,981.85
2019-05-09T08:30:51.603Z,981.81
2019-05-09T08:31:51.572Z,981.81
2019-05-09T08:32:51.543Z,981.89
2019-05-09T08:33:51.523Z,981.69
2019-05-09T08:34:51.543Z,981.84
2019-05-09T08:35:52.652Z,981.76
2019-05-09T08:36:51.498Z,981.87
2019-05-09T08:37:51.492Z,981.83
2019-05-09T08:38:51.470Z,981.80
2019-05-09T08:39:51.468Z,981.86
2019-05-09T08:40:51.457Z,981.79
2019-05-09T08:41:51.510Z,981.81
2019-05-09T08:42:51.429Z,981.93
2019-05-09T08:43:51.418Z,981.93
2019-05-09T08:44:51.478Z,981.78
2019-05-09T08:45:53.047Z,981.84
2019-05-09T08:46:51.415Z,981.80
2019-05-09T08:47:51.420Z,981.82
2019-05-09T08:48:51.366Z,981.89
2019-05-09T08:49:51.357Z,981.89
2019-05-09T08:50:51.352Z,981.80
2019-05-09T08:52:07.925Z,981.87
2019-05-09T08:52:52.328Z,981.77
2019-05-09T08:53:51.315Z,981.82
2019-05-09T08:54:51.305Z,981.83
2019-05-09T08:55:51.293Z,981.87
2019-05-09T08:56:51.318Z,981.87
2019-05-09T08:57:52.260Z,981.87
2019-05-09T08:58:51.261Z,981.74
2019-05-09T08:59:51.251Z,981.72
2019-05-09T09:00:53.043Z,981.74
2019-05-09T09:02:11.367Z,981.79
2019-05-09T09:02:52.221Z,981.69
2019-05-09T09:03:51.223Z,981.72
2019-05-09T09:04:51.201Z,981.73
2019-05-09T09:05:51.191Z,981.75
2019-05-09T09:06:51.209Z,981.76
2019-05-09T09:07:51.169Z,981.73
2019-05-09T09:08:51.168Z,981.70
2019-05-09T09:09:51.146Z,981.68
2019-05-09T09:10:51.146Z,981.74
2019-05-09T09:11:51.146Z,981.70
2019-05-09T09:12:51.745Z,981.70
2019-05-09T09:13:51.104Z,981.70
2019-05-09T09:14:51.094Z,981.75
2019-05-09T09:16:08.597Z,981.78
2019-05-09T09:16:52.103Z,981.70
2019-05-09T09:17:51.099Z,981.67
2019-05-09T09:18:51.054Z,981.67
2019-05-09T09:19:51.043Z,981.69
2019-05-09T09:20:51.036Z,981.68
2019-05-09T09:21:51.752Z,981.59
2019-05-09T09:22:51.083Z,981.62
2019-05-09T09:23:51.754Z,981.56
2019-05-09T09:24:50.990Z,981.63
2019-05-09T09:25:51.003Z,981.59
2019-05-09T09:26:51.907Z,981.60
2019-05-09T09:27:51.259Z,981.63
2019-05-09T09:28:50.947Z,981.62
2019-05-09T09:29:51.766Z,981.60
2019-05-09T09:30:50.926Z,981.57
2019-05-09T09:31:50.938Z,981.53
2019-05-09T09:32:50.907Z,981.58
2019-05-09T09:33:50.897Z,981.63
2019-05-09T09:34:50.886Z,981.66
2019-05-09T09:35:50.873Z,981.69
2019-05-09T09:36:50.895Z,981.74
2019-05-09T09:37:52.306Z,981.70
2019-05-09T09:38:50.846Z,981.72
2019-05-09T09:39:50.837Z,981.76
2019-05-09T09:40:50.821Z,981.90
2019-05-09T09:41:50.872Z,981.77
2019-05-09T09:42:50.805Z,981.83
2019-05-09T09:43:50.791Z,981.81
2019-05-09T09:44:50.780Z,981.90
2019-05-09T09:46:06.246Z,981.89
2019-05-09T09:46:51.801Z,981.87
2019-05-09T09:47:50.751Z,981.91
2019-05-09T09:48:50.771Z,981.91
2019-05-09T09:49:50.751Z,981.78
2019-05-09T09:50:51.733Z,981.77
2019-05-09T09:51:50.701Z,981.76
2019-05-09T09:52:50.733Z,981.75
2019-05-09T09:53:50.759Z,981.73
2019-05-09T09:54:51.328Z,981.83
2019-05-09T09:55:50.673Z,981.88
2019-05-09T09:56:50.680Z,981.77
2019-05-09T09:57:50.685Z,981.84
2019-05-09T09:58:50.634Z,981.89
2019-05-09T09:59:50.691Z,981.83
2019-05-09T10:00:50.617Z,981.87
2019-05-09T10:01:50.598Z,981.83
2019-05-09T10:02:50.615Z,981.82
2019-05-09T10:03:50.581Z,981.83
2019-05-09T10:04:50.573Z,981.71
2019-05-09T10:05:52.225Z,981.73
2019-05-09T10:06:53.015Z,981.68
2019-05-09T10:07:50.567Z,981.77
2019-05-09T10:08:50.533Z,981.76
2019-05-09T10:09:50.514Z,981.67
2019-05-09T10:10:50.510Z,981.72
2019-05-09T10:11:50.500Z,981.80
2019-05-09T10:12:50.512Z,981.76
2019-05-09T10:13:52.043Z,981.76
2019-05-09T10:14:50.461Z,981.66
2019-05-09T10:15:50.451Z,981.66
2019-05-09T10:16:50.449Z,981.65
2019-05-09T10:17:50.459Z,981.78
2019-05-09T10:18:50.419Z,981.76
2019-05-09T10:19:50.443Z,981.65
2019-05-09T10:20:50.402Z,981.65
2019-05-09T10:21:50.391Z,981.68
2019-05-09T10:23:00.272Z,981.67
2019-05-09T10:23:51.373Z,981.58
2019-05-09T10:24:50.370Z,981.57
2019-05-09T10:25:50.347Z,981.78
2019-05-09T10:26:50.350Z,981.53
2019-05-09T10:27:51.367Z,981.52
2019-05-09T10:28:50.317Z,981.47
2019-05-09T10:29:50.305Z,981.56
2019-05-09T10:30:51.025Z,981.49
2019-05-09T10:31:50.286Z,981.54
2019-05-09T10:32:50.304Z,981.54
2019-05-09T10:33:50.269Z,981.58
2019-05-09T10:34:50.278Z,981.54
2019-05-09T10:35:50.252Z,981.52
2019-05-09T10:36:50.231Z,981.64
2019-05-09T10:37:50.255Z,981.75
2019-05-09T10:38:50.219Z,981.69
2019-05-09T10:39:50.238Z,981.55
2019-05-09T10:40:53.167Z,981.63
2019-05-09T10:41:50.187Z,981.66
2019-05-09T10:42:50.213Z,981.72
2019-05-09T10:43:50.168Z,981.67
2019-05-09T10:44:50.162Z,981.62
2019-05-09T10:45:50.139Z,981.64
2019-05-09T10:46:57.148Z,981.89
2019-05-09T10:47:51.157Z,981.79
2019-05-09T10:48:50.108Z,981.67
2019-05-09T10:49:50.098Z,981.67
2019-05-09T10:50:53.813Z,981.75
2019-05-09T10:51:50.077Z,981.66
2019-05-09T10:52:50.068Z,981.71
2019-05-09T10:53:50.076Z,981.65
2019-05-09T10:54:50.069Z,981.72
2019-05-09T10:55:50.047Z,981.66
2019-05-09T10:56:50.027Z,981.63
2019-05-09T10:57:52.134Z,981.58
2019-05-09T10:58:50.035Z,981.70
2019-05-09T10:59:49.994Z,981.59
2019-05-09T11:00:50.063Z,981.63
2019-05-09T11:01:50.053Z,981.61
2019-05-09T11:02:49.963Z,981.56
2019-05-09T11:03:49.982Z,981.69
2019-05-09T11:04:49.940Z,981.47
2019-05-09T11:05:49.931Z,981.52
2019-05-09T11:06:49.919Z,981.54
2019-05-09T11:07:49.908Z,981.60
2019-05-09T11:08:49.928Z,981.65
2019-05-09T11:09:49.889Z,981.58
2019-05-09T11:10:49.938Z,981.64
2019-05-09T11:11:49.868Z,981.69
2019-05-09T11:12:49.855Z,981.54
2019-05-09T11:13:49.869Z,981.57
2019-05-09T11:14:49.838Z,981.59
2019-05-09T11:15:50.598Z,981.57
2019-05-09T11:17:06.364Z,981.49
2019-05-09T11:17:50.825Z,981.39
2019-05-09T11:18:49.816Z,981.42
2019-05-09T11:19:49.807Z,981.51
2019-05-09T11:20:49.774Z,981.54
2019-05-09T11:21:49.761Z,981.43
2019-05-09T11:22:49.775Z,981.47
2019-05-09T11:23:49.766Z,981.58
2019-05-09T11:24:51.081Z,981.51
2019-05-09T11:25:49.725Z,981.47
2019-05-09T11:26:49.713Z,981.49
2019-05-09T11:28:06.904Z,981.56
2019-05-09T11:28:50.712Z,981.46
2019-05-09T11:29:50.640Z,981.56
2019-05-09T11:30:49.662Z,981.36
2019-05-09T11:31:49.651Z,981.64
2019-05-09T11:32:49.640Z,981.53
2019-05-09T11:33:51.420Z,981.54
2019-05-09T11:34:49.633Z,981.61
2019-05-09T11:35:49.611Z,981.46
2019-05-09T11:36:50.043Z,981.66
2019-05-09T11:37:49.601Z,981.42
2019-05-09T11:38:49.926Z,981.62
2019-05-09T11:39:49.579Z,981.60
2019-05-09T11:40:49.558Z,981.47
2019-05-09T11:41:49.548Z,981.44
2019-05-09T11:42:49.544Z,981.35
2019-05-09T11:43:49.556Z,981.49
2019-05-09T11:44:49.525Z,981.50
2019-05-09T11:45:49.515Z,981.50
2019-05-09T11:46:49.496Z,981.50
2019-05-09T11:47:49.485Z,981.46
2019-05-09T11:48:49.504Z,981.46
2019-05-09T11:49:49.465Z,981.48
2019-05-09T11:50:49.466Z,981.41
2019-05-09T11:51:49.442Z,981.46
2019-05-09T11:52:49.513Z,981.55
2019-05-09T11:53:49.514Z,981.52
2019-05-09T11:54:49.412Z,981.59
2019-05-09T11:55:49.442Z,981.47
2019-05-09T11:56:49.392Z,981.43
2019-05-09T11:57:49.381Z,981.44
2019-05-09T11:58:49.378Z,981.16
2019-05-09T11:59:49.388Z,981.48
2019-05-09T12:00:49.378Z,981.51
2019-05-09T12:01:49.343Z,981.43
2019-05-09T12:02:50.035Z,981.34
2019-05-09T12:03:52.204Z,981.31
2019-05-09T12:04:49.372Z,981.31
2019-05-09T12:05:49.297Z,981.31
2019-05-09T12:06:49.580Z,981.36
2019-05-09T12:07:49.323Z,981.34
2019-05-09T12:08:49.267Z,981.34
2019-05-09T12:09:49.293Z,981.38
2019-05-09T12:10:49.246Z,981.48
2019-05-09T12:11:49.263Z,981.36
2019-05-09T12:12:49.226Z,981.52
2019-05-09T12:13:49.237Z,981.47
2019-05-09T12:14:49.234Z,981.29
2019-05-09T12:15:51.018Z,981.36
2019-05-09T12:16:49.395Z,981.40
2019-05-09T12:17:57.908Z,981.56
2019-05-09T12:18:50.642Z,981.40
2019-05-09T12:19:49.318Z,981.50
2019-05-09T12:20:49.283Z,981.42
2019-05-09T12:21:49.423Z,981.40
2019-05-09T12:22:49.159Z,981.40
2019-05-09T12:23:49.967Z,981.48
2019-05-09T12:24:49.151Z,981.37
2019-05-09T12:25:49.782Z,981.46
2019-05-09T12:26:49.087Z,981.57
2019-05-09T12:27:49.080Z,981.49
2019-05-09T12:28:49.182Z,981.38